createdAt,value
2022-08-05T00:01:01.072Z,1.27
2022-08-05T00:03:56.980Z,1.30
2022-08-05T00:06:33.152Z,1.27
2022-08-05T00:09:12.660Z,1.17
2022-08-05T00:11:48.469Z,1.27
2022-08-05T00:14:27.605Z,1.17
2022-08-05T00:17:03.009Z,1.17
2022-08-05T00:19:45.765Z,1.37
2022-08-05T00:22:30.967Z,1.17
2022-08-05T00:25:02.213Z,1.20
2022-08-05T00:27:42.909Z,1.30
2022-08-05T00:30:11.708Z,1.30
2022-08-05T00:32:43.726Z,1.20
2022-08-05T00:35:18.196Z,1.00
2022-08-05T00:37:53.938Z,1.17
2022-08-05T00:40:29.680Z,1.20
2022-08-05T00:43:07.442Z,1.20
2022-08-05T00:45:43.876Z,1.17
2022-08-05T00:48:35.222Z,1.13
2022-08-05T00:51:50.693Z,1.03
2022-08-05T00:54:18.817Z,1.10
2022-08-05T00:56:51.435Z,1.27
2022-08-05T00:59:24.358Z,1.30
2022-08-05T01:01:56.469Z,0.90
2022-08-05T01:04:29.953Z,1.10
2022-08-05T01:07:02.130Z,1.40
2022-08-05T01:09:34.790Z,1.20
2022-08-05T01:12:18.472Z,1.00
2022-08-05T01:15:07.526Z,1.30
2022-08-05T01:18:04.861Z,1.00
2022-08-05T01:21:00.099Z,1.20
2022-08-05T01:23:53.194Z,1.20
2022-08-05T01:26:42.820Z,1.10
2022-08-05T01:29:30.689Z,1.07
2022-08-05T01:32:06.230Z,1.00
2022-08-05T01:34:58.488Z,1.10
2022-08-05T01:37:47.300Z,1.30
2022-08-05T01:40:27.902Z,1.20
2022-08-05T01:43:01.205Z,1.03
2022-08-05T01:45:43.026Z,1.17
2022-08-05T01:48:16.611Z,1.23
2022-08-05T01:50:51.289Z,1.03
2022-08-05T01:53:54.630Z,1.00
2022-08-05T01:58:10.466Z,1.10
2022-08-05T01:59:16.169Z,1.10
2022-08-05T02:01:48.204Z,1.17
2022-08-05T02:04:20.138Z,1.00
2022-08-05T02:06:56.815Z,1.10
2022-08-05T02:09:29.575Z,1.03
2022-08-05T02:12:14.074Z,0.90
2022-08-05T02:15:00.637Z,0.90
2022-08-05T02:18:30.717Z,1.00
2022-08-05T02:20:25.268Z,1.10
2022-08-05T02:22:59.948Z,1.20
2022-08-05T02:25:50.003Z,1.03
2022-08-05T02:28:29.203Z,1.03
2022-08-05T02:31:04.043Z,0.93
2022-08-05T02:33:48.395Z,1.00
2022-08-05T02:36:20.209Z,1.10
2022-08-05T02:38:52.777Z,0.93
2022-08-05T02:41:28.974Z,1.00
2022-08-05T02:44:16.044Z,1.10
2022-08-05T02:46:59.889Z,1.20
2022-08-05T02:49:44.080Z,1.20
2022-08-05T02:52:29.978Z,0.90
2022-08-05T02:55:10.989Z,1.10
2022-08-05T02:58:12.160Z,1.20
2022-08-05T03:00:39.045Z,1.00
2022-08-05T03:03:10.400Z,0.93
2022-08-05T03:06:57.017Z,1.10
2022-08-05T03:08:42.580Z,1.10
2022-08-05T03:11:54.521Z,1.07
2022-08-05T03:14:24.731Z,1.00
2022-08-05T03:16:59.056Z,1.10
2022-08-05T03:19:33.253Z,0.73
2022-08-05T03:22:02.271Z,1.00
2022-08-05T03:24:37.834Z,0.87
2022-08-05T03:27:10.383Z,0.80
2022-08-05T03:29:46.018Z,1.00
2022-08-05T03:32:36.050Z,1.10
2022-08-05T03:35:09.829Z,1.00
2022-08-05T03:37:46.438Z,0.93
2022-08-05T03:40:24.171Z,1.00
2022-08-05T03:43:15.788Z,0.90
2022-08-05T03:45:58.704Z,1.00
2022-08-05T03:48:35.489Z,0.90
2022-08-05T03:52:48.929Z,0.90
2022-08-05T03:55:07.215Z,1.00
2022-08-05T03:57:42.218Z,0.93
2022-08-05T04:00:16.277Z,0.97
2022-08-05T04:02:58.557Z,0.80
2022-08-05T04:05:40.130Z,0.80
2022-08-05T04:08:34.640Z,0.90
2022-08-05T04:11:06.350Z,0.97
2022-08-05T04:13:50.632Z,0.90
2022-08-05T04:16:25.370Z,1.13
2022-08-05T04:19:00.619Z,0.97
2022-08-05T04:22:10.007Z,0.80
2022-08-05T04:24:27.723Z,0.90
2022-08-05T04:26:59.850Z,0.93
2022-08-05T04:29:33.493Z,0.97
2022-08-05T04:32:05.076Z,1.13
2022-08-05T04:34:43.104Z,0.90
2022-08-05T04:37:14.263Z,0.80
2022-08-05T04:39:45.318Z,0.87
2022-08-05T04:45:06.861Z,0.93
2022-08-05T04:47:42.865Z,1.20
2022-08-05T04:50:37.334Z,1.00
2022-08-05T04:53:23.711Z,1.03
2022-08-05T04:58:38.809Z,1.00
2022-08-05T05:01:09.291Z,0.90
2022-08-05T05:03:42.257Z,1.10
2022-08-05T05:09:06.315Z,0.90
2022-08-05T05:11:54.078Z,0.90
2022-08-05T05:14:31.907Z,1.00
2022-08-05T05:17:03.266Z,0.90
2022-08-05T05:19:44.432Z,0.90
2022-08-05T05:22:24.496Z,1.10
2022-08-05T05:25:00.178Z,1.00
2022-08-05T05:27:44.793Z,1.00
2022-08-05T05:30:30.542Z,1.00
2022-08-05T05:33:16.256Z,1.10
2022-08-05T05:35:52.583Z,1.00
2022-08-05T05:38:27.120Z,0.90
2022-08-05T05:41:00.178Z,1.20
2022-08-05T05:43:57.577Z,1.10
2022-08-05T05:46:30.014Z,0.90
2022-08-05T05:49:06.413Z,0.90
2022-08-05T05:51:50.034Z,0.90
2022-08-05T05:54:22.239Z,0.93
2022-08-05T05:57:19.227Z,1.00
2022-08-05T05:59:52.877Z,1.00
2022-08-05T06:02:32.382Z,0.90
2022-08-05T06:05:16.897Z,1.00
2022-08-05T06:08:01.156Z,0.80
2022-08-05T06:10:37.400Z,1.10
2022-08-05T06:13:20.844Z,0.80
2022-08-05T06:16:29.591Z,0.90
2022-08-05T06:18:46.473Z,1.00
2022-08-05T06:21:19.015Z,0.77
2022-08-05T06:23:52.001Z,0.80
2022-08-05T06:26:27.399Z,1.10
2022-08-05T06:29:23.808Z,0.80
2022-08-05T06:32:00.349Z,0.90
2022-08-05T06:34:34.578Z,0.87
2022-08-05T06:37:03.056Z,0.87
2022-08-05T06:39:32.665Z,0.90
2022-08-05T06:42:05.396Z,0.90
2022-08-05T06:44:35.949Z,0.80
2022-08-05T06:47:06.581Z,1.00
2022-08-05T06:52:37.677Z,1.03
2022-08-05T06:55:11.105Z,1.03
2022-08-05T06:57:58.140Z,1.03
2022-08-05T07:00:36.384Z,0.90
2022-08-05T07:03:14.343Z,0.90
2022-08-05T07:05:46.591Z,0.80
2022-08-05T07:08:17.368Z,0.80
2022-08-05T07:10:52.919Z,1.07
2022-08-05T07:13:58.804Z,1.00
2022-08-05T07:17:59.331Z,1.00
2022-08-05T07:20:16.651Z,1.13
2022-08-05T07:22:42.246Z,1.00
2022-08-05T07:25:23.655Z,0.90
2022-08-05T07:28:07.279Z,1.17
2022-08-05T07:30:40.734Z,0.93
2022-08-05T07:33:16.180Z,0.77
2022-08-05T07:38:42.641Z,1.00
2022-08-05T07:42:13.331Z,0.97
2022-08-05T07:44:28.985Z,1.00
2022-08-05T07:47:00.904Z,1.10
2022-08-05T07:49:43.519Z,1.10
2022-08-05T07:52:24.030Z,0.97
2022-08-05T07:55:01.094Z,1.00
2022-08-05T07:57:50.555Z,1.30
2022-08-05T08:00:30.533Z,0.93
2022-08-05T08:03:13.838Z,1.03
2022-08-05T08:05:49.400Z,1.03
2022-08-05T08:11:02.134Z,0.80
2022-08-05T08:13:42.847Z,0.90
2022-08-05T08:16:49.761Z,1.00
2022-08-05T08:20:21.051Z,0.80
2022-08-05T08:22:16.053Z,0.90
2022-08-05T08:25:16.414Z,0.87
2022-08-05T08:27:53.090Z,0.80
2022-08-05T08:30:32.496Z,1.00
2022-08-05T08:33:14.686Z,0.93
2022-08-05T08:35:52.982Z,0.83
2022-08-05T08:38:37.517Z,0.97
2022-08-05T08:41:08.929Z,0.70
2022-08-05T08:45:18.732Z,1.03
2022-08-05T08:46:41.458Z,0.90
2022-08-05T08:50:06.070Z,1.00
2022-08-05T08:52:23.073Z,1.07
2022-08-05T08:54:57.868Z,0.93
2022-08-05T08:57:42.273Z,0.90
2022-08-05T09:00:25.242Z,1.10
2022-08-05T09:02:58.316Z,1.10
2022-08-05T09:05:38.297Z,0.90
2022-08-05T09:11:13.617Z,1.07
2022-08-05T09:14:10.025Z,1.07
2022-08-05T09:16:42.184Z,1.13
2022-08-05T09:19:18.676Z,1.10
2022-08-05T09:22:23.073Z,1.17
2022-08-05T09:25:13.520Z,1.20
2022-08-05T09:28:05.293Z,1.30
2022-08-05T09:30:39.043Z,1.07
2022-08-05T09:33:08.746Z,0.97
2022-08-05T09:36:06.104Z,1.20
2022-08-05T09:38:42.360Z,1.17
2022-08-05T09:41:16.083Z,0.90
2022-08-05T09:43:49.382Z,0.97
2022-08-05T09:46:37.724Z,0.90
2022-08-05T09:49:54.747Z,1.07
2022-08-05T09:52:35.257Z,1.13
2022-08-05T09:55:57.427Z,1.40
2022-08-05T09:58:12.716Z,1.13
2022-08-05T10:00:56.088Z,0.97
2022-08-05T10:03:38.644Z,1.00
2022-08-05T10:06:22.902Z,1.10
2022-08-05T10:08:55.857Z,1.20
2022-08-05T10:11:31.283Z,0.90
2022-08-05T10:14:32.205Z,1.00
2022-08-05T10:17:37.208Z,0.77
2022-08-05T10:20:24.083Z,0.80
2022-08-05T10:22:58.464Z,0.90
2022-08-05T10:25:27.026Z,1.00
2022-08-05T10:28:19.111Z,1.10
2022-08-05T10:32:48.584Z,0.90
2022-08-05T10:33:40.973Z,0.90
2022-08-05T10:36:10.617Z,0.90
2022-08-05T10:38:45.076Z,1.00
2022-08-05T10:41:23.395Z,1.00
2022-08-05T10:44:11.200Z,1.10
2022-08-05T10:46:50.717Z,1.10
2022-08-05T10:49:19.001Z,1.03
2022-08-05T10:52:00.671Z,0.90
2022-08-05T10:54:56.679Z,1.10
2022-08-05T10:57:35.006Z,0.90
2022-08-05T11:00:24.401Z,0.97
2022-08-05T11:03:24.834Z,0.90
2022-08-05T11:06:19.539Z,1.10
2022-08-05T11:09:39.193Z,1.10
2022-08-05T11:12:41.240Z,0.83
2022-08-05T11:16:00.099Z,0.83
2022-08-05T11:18:37.047Z,0.83
2022-08-05T11:21:48.812Z,0.97
2022-08-05T11:27:51.506Z,1.00
2022-08-05T11:30:22.419Z,0.80
2022-08-05T11:33:21.060Z,0.70
2022-08-05T11:36:07.659Z,0.73
2022-08-05T11:38:45.493Z,0.83
2022-08-05T11:44:40.084Z,0.80
2022-08-05T11:47:15.085Z,0.90
2022-08-05T11:49:51.110Z,0.97
2022-08-05T11:52:32.737Z,0.90
2022-08-05T11:55:07.675Z,1.00
2022-08-05T11:58:09.298Z,0.70
2022-08-05T12:00:38.106Z,0.80
2022-08-05T12:03:31.483Z,0.80
2022-08-05T12:06:10.011Z,0.93
2022-08-05T12:08:51.065Z,0.80
2022-08-05T12:14:20.825Z,0.90
2022-08-05T12:16:53.060Z,0.77
2022-08-05T12:20:25.769Z,0.90
2022-08-05T12:22:22.904Z,0.67
2022-08-05T12:25:06.510Z,0.90
2022-08-05T12:27:53.016Z,0.70
2022-08-05T12:30:35.628Z,0.80
2022-08-05T12:33:07.447Z,0.73
2022-08-05T12:35:56.651Z,0.70
2022-08-05T12:38:30.269Z,0.87
2022-08-05T12:41:00.575Z,0.70
2022-08-05T12:46:29.386Z,0.60
2022-08-05T12:49:14.956Z,0.90
2022-08-05T12:52:13.945Z,0.80
2022-08-05T12:55:05.174Z,0.73
2022-08-05T12:58:49.789Z,0.70
2022-08-05T13:03:19.743Z,0.80
2022-08-05T13:05:52.584Z,0.73
2022-08-05T13:08:24.428Z,0.70
2022-08-05T13:11:04.181Z,0.60
2022-08-05T13:14:05.926Z,0.70
2022-08-05T13:16:28.188Z,0.70
2022-08-05T13:19:01.085Z,0.70
2022-08-05T13:21:37.892Z,0.77
2022-08-05T13:24:36.240Z,0.70
2022-08-05T13:27:17.027Z,0.87
2022-08-05T13:30:31.648Z,0.67
2022-08-05T13:32:51.291Z,0.93
2022-08-05T13:35:31.423Z,0.70
2022-08-05T13:38:28.237Z,0.80
2022-08-05T13:41:04.744Z,0.70
2022-08-05T13:43:44.791Z,0.80
2022-08-05T13:46:30.690Z,0.77
2022-08-05T13:49:10.112Z,0.70
2022-08-05T13:51:47.102Z,0.67
2022-08-05T13:54:21.027Z,0.70
2022-08-05T13:56:56.179Z,0.80
2022-08-05T13:59:30.612Z,0.80
2022-08-05T14:02:06.143Z,0.77
2022-08-05T14:05:00.587Z,0.90
2022-08-05T14:08:00.228Z,0.80
2022-08-05T14:10:38.901Z,0.73
2022-08-05T14:13:08.370Z,0.70
2022-08-05T14:16:07.007Z,0.50
2022-08-05T14:18:34.528Z,0.70
2022-08-05T14:22:07.047Z,0.73
2022-08-05T14:24:00.530Z,0.80
2022-08-05T14:26:38.466Z,0.70
2022-08-05T14:29:17.264Z,0.77
2022-08-05T14:32:12.168Z,0.70
2022-08-05T14:34:49.611Z,0.60
2022-08-05T14:37:45.460Z,0.70
2022-08-05T14:40:18.826Z,0.67
2022-08-05T14:42:51.331Z,0.70
2022-08-05T14:45:26.797Z,1.00
2022-08-05T14:48:05.356Z,0.80
2022-08-05T14:50:40.659Z,0.60
2022-08-05T14:53:09.795Z,0.63
2022-08-05T14:55:47.326Z,0.60
2022-08-05T14:58:23.063Z,0.70
2022-08-05T15:00:59.199Z,0.63
2022-08-05T15:03:55.852Z,0.60
2022-08-05T15:06:27.948Z,0.70
2022-08-05T15:09:05.159Z,0.90
2022-08-05T15:11:51.196Z,0.90
2022-08-05T15:14:33.348Z,0.50
2022-08-05T15:17:10.027Z,0.60
2022-08-05T15:20:01.314Z,0.70
2022-08-05T15:22:30.912Z,0.70
2022-08-05T15:25:13.678Z,0.80
2022-08-05T15:27:52.490Z,0.67
2022-08-05T15:30:27.421Z,0.50
2022-08-05T15:32:57.606Z,0.60
2022-08-05T15:35:35.937Z,0.60
2022-08-05T15:38:34.582Z,0.70
2022-08-05T15:41:23.817Z,0.70
2022-08-05T15:43:55.484Z,0.60
2022-08-05T15:46:25.633Z,0.70
2022-08-05T15:49:01.389Z,0.60
2022-08-05T15:52:10.309Z,0.67
2022-08-05T15:54:39.089Z,1.03
2022-08-05T15:57:08.622Z,0.50
2022-08-05T15:59:42.338Z,0.73
2022-08-05T16:02:27.662Z,0.70
2022-08-05T16:07:46.467Z,0.67
2022-08-05T16:10:25.250Z,0.87
2022-08-05T16:12:56.997Z,0.67
2022-08-05T16:15:32.476Z,0.60
2022-08-05T16:18:04.308Z,0.83
2022-08-05T16:20:41.009Z,1.00
2022-08-05T16:23:13.345Z,0.60
2022-08-05T16:25:47.842Z,0.60
2022-08-05T16:28:16.821Z,0.70
2022-08-05T16:30:51.177Z,0.80
2022-08-05T16:33:25.931Z,0.70
2022-08-05T16:35:56.360Z,0.70
2022-08-05T16:38:28.131Z,0.70
2022-08-05T16:41:00.476Z,0.80
2022-08-05T16:43:36.564Z,0.83
2022-08-05T16:46:24.259Z,0.80
2022-08-05T16:48:57.733Z,0.80
2022-08-05T16:51:30.797Z,0.90
2022-08-05T16:54:21.828Z,0.80
2022-08-05T16:56:59.650Z,0.70
2022-08-05T16:59:34.043Z,0.70
2022-08-05T17:02:27.633Z,0.90
2022-08-05T17:04:57.196Z,0.80
2022-08-05T17:07:43.578Z,0.70
2022-08-05T17:10:26.385Z,0.60
2022-08-05T17:13:01.362Z,0.70
2022-08-05T17:15:49.114Z,0.73
2022-08-05T17:18:37.201Z,0.60
2022-08-05T17:21:10.131Z,0.70
2022-08-05T17:24:03.036Z,0.73
2022-08-05T17:26:35.563Z,0.80
2022-08-05T17:29:07.395Z,0.80
2022-08-05T17:31:56.943Z,1.00
2022-08-05T17:34:32.608Z,0.60
2022-08-05T17:37:27.296Z,0.70
2022-08-05T17:40:00.792Z,0.77
2022-08-05T17:42:38.110Z,0.80
2022-08-05T17:45:20.344Z,0.80
2022-08-05T17:47:55.346Z,0.70
2022-08-05T17:50:30.447Z,0.80
2022-08-05T17:53:05.279Z,0.67
2022-08-05T17:55:40.716Z,0.70
2022-08-05T17:58:16.079Z,0.63
2022-08-05T18:00:51.041Z,0.77
2022-08-05T18:06:29.478Z,0.70
2022-08-05T18:09:04.018Z,0.60
2022-08-05T18:11:54.540Z,0.80
2022-08-05T18:14:28.773Z,0.87
2022-08-05T18:17:01.814Z,0.60
2022-08-05T18:19:36.060Z,0.60
2022-08-05T18:22:08.805Z,0.73
2022-08-05T18:24:43.965Z,0.80
2022-08-05T18:27:18.785Z,0.73
2022-08-05T18:29:54.908Z,0.70
2022-08-05T18:32:28.231Z,0.80
2022-08-05T18:35:02.589Z,0.60
2022-08-05T18:37:40.357Z,0.90
2022-08-05T18:40:34.060Z,0.87
2022-08-05T18:43:08.908Z,0.73
2022-08-05T18:45:45.394Z,0.90
2022-08-05T18:48:30.249Z,0.63
2022-08-05T18:52:03.069Z,0.90
2022-08-05T18:54:15.758Z,0.70
2022-08-05T18:56:51.271Z,0.60
2022-08-05T18:59:42.812Z,0.67
2022-08-05T19:02:26.633Z,0.77
2022-08-05T19:06:12.266Z,0.80
2022-08-05T19:07:58.197Z,0.80
2022-08-05T19:10:30.623Z,0.60
2022-08-05T19:13:02.478Z,0.60
2022-08-05T19:15:58.740Z,0.80
2022-08-05T19:18:22.905Z,0.73
2022-08-05T19:20:56.582Z,0.80
2022-08-05T19:24:05.510Z,0.70
2022-08-05T19:26:20.894Z,0.73
2022-08-05T19:28:52.447Z,0.77
2022-08-05T19:31:21.556Z,0.70
2022-08-05T19:33:56.425Z,0.70
2022-08-05T19:36:30.350Z,0.70
2022-08-05T19:39:01.410Z,0.70
2022-08-05T19:42:08.117Z,0.80
2022-08-05T19:44:30.701Z,0.50
2022-08-05T19:47:06.790Z,0.83
2022-08-05T19:49:40.721Z,0.80
2022-08-05T19:52:30.170Z,0.70
2022-08-05T19:55:07.114Z,0.70
2022-08-05T19:58:19.470Z,0.70
2022-08-05T20:00:47.992Z,0.70
2022-08-05T20:03:18.776Z,0.70
2022-08-05T20:05:51.487Z,0.70
2022-08-05T20:08:24.318Z,0.53
2022-08-05T20:10:57.068Z,0.60
2022-08-05T20:13:29.971Z,0.60
2022-08-05T20:16:34.657Z,0.60
2022-08-05T20:19:05.453Z,0.63
2022-08-05T20:21:37.782Z,0.53
2022-08-05T20:24:11.588Z,0.50
2022-08-05T20:26:42.717Z,0.60
2022-08-05T20:29:27.353Z,0.60
2022-08-05T20:32:00.563Z,0.80
2022-08-05T20:34:31.581Z,0.60
2022-08-05T20:37:04.495Z,0.50
2022-08-05T20:40:05.714Z,0.50
2022-08-05T20:42:40.044Z,0.50
2022-08-05T20:45:12.074Z,0.63
2022-08-05T20:47:53.075Z,0.70
2022-08-05T20:50:22.132Z,0.60
2022-08-05T20:52:53.558Z,0.60
2022-08-05T20:55:56.533Z,0.40
2022-08-05T20:58:17.861Z,0.60
2022-08-05T21:00:54.831Z,0.70
2022-08-05T21:03:27.149Z,0.70
2022-08-05T21:06:28.484Z,0.40
2022-08-05T21:09:02.324Z,0.60
2022-08-05T21:12:08.890Z,0.70
2022-08-05T21:14:28.766Z,0.70
2022-08-05T21:17:03.118Z,0.53
2022-08-05T21:19:47.422Z,0.57
2022-08-05T21:22:21.904Z,0.50
2022-08-05T21:24:55.272Z,0.50
2022-08-05T21:27:27.633Z,0.70
2022-08-05T21:30:17.327Z,0.70
2022-08-05T21:32:56.712Z,0.57
2022-08-05T21:35:29.845Z,0.60
2022-08-05T21:38:01.329Z,0.50
2022-08-05T21:40:32.859Z,0.70
2022-08-05T21:43:05.694Z,0.53
2022-08-05T21:48:26.830Z,0.70
2022-08-05T21:50:58.936Z,0.60
2022-08-05T21:53:31.100Z,0.50
2022-08-05T21:56:16.532Z,0.40
2022-08-05T21:58:57.518Z,0.50
2022-08-05T22:01:35.467Z,0.60
2022-08-05T22:04:17.785Z,0.70
2022-08-05T22:06:50.446Z,0.50
2022-08-05T22:09:21.539Z,0.50
2022-08-05T22:11:54.606Z,0.57
2022-08-05T22:14:35.177Z,0.57
2022-08-05T22:17:07.321Z,0.63
2022-08-05T22:20:02.015Z,0.80
2022-08-05T22:23:00.313Z,0.50
2022-08-05T22:26:10.085Z,0.70
2022-08-05T22:28:43.410Z,0.63
2022-08-05T22:31:16.823Z,0.60
2022-08-05T22:34:01.115Z,0.70
2022-08-05T22:36:34.136Z,0.50
2022-08-05T22:39:09.701Z,0.60
2022-08-05T22:42:09.494Z,0.70
2022-08-05T22:50:20.155Z,0.70
2022-08-05T22:52:52.767Z,0.60
2022-08-05T22:55:23.862Z,0.70
2022-08-05T22:57:58.703Z,0.43
2022-08-05T23:00:26.905Z,0.50
2022-08-05T23:03:01.569Z,0.70
2022-08-05T23:08:18.384Z,0.60
2022-08-05T23:10:56.008Z,0.80
2022-08-05T23:13:29.212Z,0.50
2022-08-05T23:15:59.419Z,0.70
2022-08-05T23:18:30.331Z,0.60
2022-08-05T23:21:02.210Z,0.67
2022-08-05T23:23:35.285Z,0.70
2022-08-05T23:26:08.878Z,0.50
2022-08-05T23:28:39.755Z,0.70
2022-08-05T23:31:17.918Z,0.60
2022-08-05T23:34:03.828Z,0.70
2022-08-05T23:36:44.657Z,0.70
2022-08-05T23:39:23.529Z,0.60
2022-08-05T23:44:47.650Z,0.60
2022-08-05T23:47:26.374Z,0.70
2022-08-05T23:49:57.631Z,0.73
2022-08-05T23:52:50.154Z,0.70
2022-08-05T23:55:31.170Z,0.70
2022-08-05T23:57:59.816Z,0.80
